Time;durP1;ratioP1;P1;durP2;ratioP2;P2;SDS_P1;SDS_P2;PMS_P1;PMS_P2;Temp;Humidity;BMP_temperature;BMP_pressure;BME280_temperature;BME280_humidity;BME280_pressure;Samples;Min_cycle;Max_cycle;Signal;HPM_P1;HPM_P2
2023/12/08 00:01:19;;;;;;;75.40;30.80;;;1.10;99.90;;;;;;5114883;28;20415;-49
2023/12/08 00:03:45;;;;;;;72.60;30.70;;;1.00;99.90;;;;;;5114725;28;20180;-49
2023/12/08 00:06:10;;;;;;;81.63;30.50;;;1.00;99.90;;;;;;5071307;28;1227457;-49
2023/12/08 00:08:37;;;;;;;77.90;31.27;;;1.10;99.90;;;;;;5115612;28;20188;-49
2023/12/08 00:11:03;;;;;;;73.80;29.93;;;1.10;99.90;;;;;;5115624;28;20177;-48
2023/12/08 00:13:29;;;;;;;72.33;28.67;;;1.10;99.90;;;;;;5096856;28;20423;-49
2023/12/08 00:15:54;;;;;;;73.93;30.50;;;1.00;99.90;;;;;;5115221;28;20423;-48
2023/12/08 00:18:21;;;;;;;74.57;30.10;;;1.00;99.90;;;;;;5115730;28;20173;-49
2023/12/08 00:20:47;;;;;;;67.67;28.13;;;1.10;99.90;;;;;;5115418;28;20181;-49
2023/12/08 00:23:12;;;;;;;71.40;29.03;;;1.00;99.90;;;;;;5115283;28;20509;-49
2023/12/08 00:25:38;;;;;;;71.23;28.67;;;1.00;99.90;;;;;;5114060;28;20466;-48
2023/12/08 00:28:04;;;;;;;75.43;29.03;;;0.90;99.90;;;;;;5115660;28;20176;-48
2023/12/08 00:30:29;;;;;;;76.50;29.00;;;0.90;99.90;;;;;;5114710;28;20213;-48
2023/12/08 00:32:56;;;;;;;71.57;28.70;;;0.90;99.90;;;;;;5115107;28;20230;-48
2023/12/08 00:35:22;;;;;;;67.93;28.47;;;0.90;99.90;;;;;;5114968;28;20216;-49
2023/12/08 00:37:48;;;;;;;69.13;27.43;;;0.90;99.90;;;;;;5114842;28;20512;-49
2023/12/08 00:40:15;;;;;;;77.30;29.37;;;0.90;99.90;;;;;;5115035;28;20454;-48
2023/12/08 00:42:40;;;;;;;77.80;27.93;;;0.90;99.90;;;;;;5115053;28;20449;-48
2023/12/08 00:45:06;;;;;;;76.47;27.83;;;0.80;99.90;;;;;;5114435;28;20867;-48
2023/12/08 00:47:32;;;;;;;67.37;28.20;;;0.90;99.90;;;;;;5114983;28;20283;-48
2023/12/08 00:49:57;;;;;;;69.57;26.80;;;0.90;99.90;;;;;;5114493;28;20191;-48
2023/12/08 00:52:23;;;;;;;76.93;28.60;;;0.90;99.90;;;;;;5115128;28;20203;-48
2023/12/08 00:54:49;;;;;;;68.10;29.10;;;0.90;99.90;;;;;;5114724;28;20184;-48
2023/12/08 00:57:15;;;;;;;66.43;28.10;;;0.80;99.90;;;;;;5114722;28;20180;-48
2023/12/08 00:59:40;;;;;;;63.00;26.97;;;0.80;99.90;;;;;;5114950;28;20183;-49
2023/12/08 01:02:06;;;;;;;70.93;27.43;;;0.80;99.90;;;;;;5114657;28;20769;-49
2023/12/08 01:04:31;;;;;;;67.60;28.07;;;0.80;99.90;;;;;;5114311;28;20723;-48
2023/12/08 01:06:57;;;;;;;63.07;27.37;;;0.70;99.90;;;;;;5115053;28;20650;-48
2023/12/08 01:09:23;;;;;;;61.60;25.97;;;0.70;99.90;;;;;;5114445;28;20621;-49
2023/12/08 01:11:48;;;;;;;65.63;27.60;;;0.70;99.90;;;;;;5114734;28;20199;-48
2023/12/08 01:14:14;;;;;;;64.33;26.13;;;0.60;99.90;;;;;;5114353;28;20203;-49
2023/12/08 01:16:43;;;;;;;72.03;28.57;;;0.70;99.90;;;;;;5114560;28;20201;-48
2023/12/08 01:19:12;;;;;;;63.33;26.20;;;0.70;99.90;;;;;;5114420;28;20177;-48
2023/12/08 01:21:39;;;;;;;67.67;26.97;;;0.60;99.90;;;;;;5114330;28;20497;-48
2023/12/08 01:24:05;;;;;;;64.07;28.17;;;0.60;99.90;;;;;;5114196;28;20466;-49
2023/12/08 01:26:31;;;;;;;66.63;27.40;;;0.50;99.90;;;;;;5114386;28;20421;-49
2023/12/08 01:28:57;;;;;;;62.40;26.27;;;0.60;99.90;;;;;;5113949;28;20410;-49
2023/12/08 01:31:22;;;;;;;66.57;26.23;;;0.60;99.90;;;;;;5114251;28;20630;-49
2023/12/08 01:33:48;;;;;;;54.70;24.00;;;0.50;99.90;;;;;;5113939;28;20181;-48
2023/12/08 01:36:14;;;;;;;60.43;25.03;;;0.40;99.90;;;;;;5114022;28;20177;-49
2023/12/08 01:38:44;;;;;;;56.00;24.97;;;0.40;99.90;;;;;;5114234;28;20177;-49
2023/12/08 01:41:13;;;;;;;60.20;25.77;;;0.40;99.90;;;;;;5113794;28;20467;-49
2023/12/08 01:43:39;;;;;;;56.57;24.73;;;0.40;99.90;;;;;;5113819;28;20856;-49
2023/12/08 01:46:05;;;;;;;55.10;23.57;;;0.40;99.90;;;;;;5113971;28;20501;-48
2023/12/08 01:48:31;;;;;;;59.90;24.57;;;0.30;99.90;;;;;;5113951;28;20176;-49
2023/12/08 01:50:57;;;;;;;54.70;24.47;;;0.20;99.90;;;;;;5113574;28;20257;-48
2023/12/08 01:53:23;;;;;;;57.03;24.63;;;0.20;99.90;;;;;;5113950;28;20422;-49
2023/12/08 01:55:48;;;;;;;64.97;25.50;;;0.20;99.90;;;;;;5113785;28;20767;-49
2023/12/08 01:58:14;;;;;;;52.40;23.00;;;0.30;99.90;;;;;;5113821;28;20185;-48
2023/12/08 02:00:42;;;;;;;62.90;25.47;;;0.20;99.90;;;;;;5113993;28;20268;-49
2023/12/08 02:03:07;;;;;;;56.47;23.97;;;0.10;99.90;;;;;;5113986;28;20176;-49
2023/12/08 02:05:35;;;;;;;59.63;25.40;;;0.10;99.90;;;;;;5113048;28;20622;-49
2023/12/08 02:08:01;;;;;;;54.10;24.87;;;0.20;99.90;;;;;;5113908;28;20188;-49
2023/12/08 02:10:26;;;;;;;58.00;24.77;;;0.20;99.90;;;;;;5113645;28;20406;-49
2023/12/08 02:12:52;;;;;;;57.67;25.50;;;0.20;99.90;;;;;;5113989;28;20198;-49
2023/12/08 02:15:17;;;;;;;59.83;26.00;;;0.20;99.90;;;;;;5113567;28;20184;-49
2023/12/08 02:17:45;;;;;;;56.57;25.40;;;0.20;91.30;;;;;;5113510;28;20192;-49
2023/12/08 02:20:11;;;;;;;56.10;25.70;;;0.20;92.30;;;;;;5113591;28;20180;-49
2023/12/08 02:22:37;;;;;;;57.20;23.93;;;0.20;81.20;;;;;;5113912;28;20411;-49
2023/12/08 02:25:03;;;;;;;59.97;25.40;;;0.30;53.20;;;;;;5113412;28;20457;-49
2023/12/08 02:27:29;;;;;;;53.30;24.53;;;0.20;42.00;;;;;;5113820;28;20285;-49
2023/12/08 02:29:55;;;;;;;52.47;23.87;;;0.20;31.60;;;;;;5113935;28;20501;-49
2023/12/08 02:32:36;;;;;;;62.43;26.47;;;0.20;29.40;;;;;;5114040;28;20975;-49
2023/12/08 02:35:06;;;;;;;56.40;24.13;;;0.20;11.50;;;;;;5113571;28;20884;-50
2023/12/08 02:37:35;;;;;;;57.90;24.20;;;0.20;10.00;;;;;;5113196;28;20942;-49
2023/12/08 02:40:02;;;;;;;59.77;24.30;;;0.20;4.40;;;;;;5113456;28;20906;-49
2023/12/08 02:42:28;;;;;;;52.93;22.80;;;0.20;1.00;;;;;;5113238;28;20419;-49
2023/12/08 02:44:53;;;;;;;60.00;25.27;;;0.30;1.00;;;;;;5113251;28;20458;-49
2023/12/08 02:47:19;;;;;;;55.30;24.63;;;0.30;1.00;;;;;;5113729;28;20200;-49
2023/12/08 02:49:44;;;;;;;54.67;22.30;;;0.30;1.00;;;;;;5116625;28;20184;-50
2023/12/08 02:52:10;;;;;;;58.23;25.30;;;0.20;1.00;;;;;;5117394;28;20176;-49
2023/12/08 02:54:36;;;;;;;54.57;23.30;;;0.30;1.00;;;;;;5117289;28;20259;-49
2023/12/08 02:57:01;;;;;;;51.27;22.57;;;0.30;1.00;;;;;;5117013;28;20591;-49
2023/12/08 02:59:27;;;;;;;57.53;24.23;;;0.30;1.00;;;;;;5117215;28;20707;-50
2023/12/08 03:01:52;;;;;;;61.60;25.40;;;0.30;1.00;;;;;;5116923;28;20566;-49
2023/12/08 03:04:18;;;;;;;52.57;24.03;;;0.30;1.00;;;;;;5116934;28;20219;-49
2023/12/08 03:06:43;;;;;;;58.60;24.33;;;0.20;1.00;;;;;;5116702;28;20273;-49
2023/12/08 03:09:09;;;;;;;55.50;23.90;;;0.30;1.00;;;;;;5116503;28;20309;-50
2023/12/08 03:11:35;;;;;;;52.83;22.93;;;0.20;1.00;;;;;;5116316;28;20188;-49
2023/12/08 03:14:00;;;;;;;50.13;22.60;;;0.20;1.00;;;;;;5116128;28;20180;-49
2023/12/08 03:16:26;;;;;;;51.27;24.83;;;0.30;1.00;;;;;;5116228;28;20575;-49
2023/12/08 03:18:51;;;;;;;48.30;22.33;;;0.20;1.00;;;;;;5116435;28;20180;-49
2023/12/08 03:21:21;;;;;;;49.80;23.07;;;0.20;1.00;;;;;;5116640;28;20207;-49
2023/12/08 03:23:47;;;;;;;48.40;22.40;;;0.20;1.00;;;;;;5116393;28;20207;-49
2023/12/08 03:26:12;;;;;;;45.80;21.27;;;0.20;1.00;;;;;;5116534;28;20834;-50
2023/12/08 03:28:38;;;;;;;49.80;23.07;;;0.10;1.00;;;;;;5116679;28;20181;-50
2023/12/08 03:31:04;;;;;;;53.63;22.63;;;0.20;1.00;;;;;;5116377;28;20176;-49
2023/12/08 03:33:29;;;;;;;46.50;20.83;;;0.10;1.00;;;;;;5116774;28;20298;-49
2023/12/08 03:35:55;;;;;;;48.03;22.07;;;0.10;1.00;;;;;;5116200;28;20267;-50
2023/12/08 03:38:20;;;;;;;48.87;21.90;;;0.20;1.00;;;;;;5116115;28;20231;-49
2023/12/08 03:40:46;;;;;;;51.77;22.30;;;0.10;99.90;;;;;;5116439;28;20226;-50
2023/12/08 03:43:11;;;;;;;46.93;22.00;;;0.20;99.90;;;;;;5116198;28;20209;-49
2023/12/08 03:45:37;;;;;;;50.97;22.90;;;0.20;99.90;;;;;;5116318;28;20204;-49
2023/12/08 03:48:03;;;;;;;48.80;22.83;;;0.20;99.90;;;;;;5116273;28;20177;-50
2023/12/08 03:50:28;;;;;;;48.00;21.10;;;0.20;99.90;;;;;;5115663;28;20202;-49
2023/12/08 03:52:55;;;;;;;39.80;18.97;;;0.20;99.90;;;;;;5115841;28;20683;-50
2023/12/08 03:55:21;;;;;;;48.87;21.87;;;0.20;99.90;;;;;;5115962;28;20185;-49
2023/12/08 03:57:47;;;;;;;41.93;20.23;;;0.30;12.20;;;;;;5115666;28;20910;-50
2023/12/08 04:00:13;;;;;;;41.80;19.33;;;0.30;1.00;;;;;;5114679;28;20405;-49
2023/12/08 04:02:39;;;;;;;45.23;20.73;;;0.30;3.30;;;;;;5115431;28;20434;-49
2023/12/08 04:05:05;;;;;;;42.70;20.77;;;0.30;1.00;;;;;;5115338;28;20454;-49
2023/12/08 04:07:30;;;;;;;45.17;21.00;;;0.30;1.00;;;;;;5115620;28;20259;-50
2023/12/08 04:09:56;;;;;;;44.13;20.03;;;0.40;1.00;;;;;;5115250;28;20425;-50
2023/12/08 04:12:22;;;;;;;42.13;20.67;;;0.30;1.00;;;;;;5115592;28;20173;-50
2023/12/08 04:14:48;;;;;;;41.80;20.27;;;0.30;1.00;;;;;;5115674;28;20264;-50
2023/12/08 04:17:13;;;;;;;45.13;20.03;;;0.30;1.00;;;;;;5115370;28;20574;-50
2023/12/08 04:19:39;;;;;;;38.30;18.03;;;0.40;1.00;;;;;;5115899;28;20212;-50
2023/12/08 04:22:05;;;;;;;36.30;18.27;;;0.40;99.90;;;;;;5115548;28;20183;-50
2023/12/08 04:24:30;;;;;;;41.53;19.20;;;0.50;1.00;;;;;;5115230;28;20208;-50
2023/12/08 04:26:56;;;;;;;38.43;18.20;;;0.50;1.00;;;;;;5115518;28;20532;-50
2023/12/08 04:29:21;;;;;;;38.67;18.07;;;0.50;1.00;;;;;;5115267;28;20236;-51
2023/12/08 04:31:47;;;;;;;36.40;17.70;;;0.60;99.90;;;;;;5115150;28;20203;-50
2023/12/08 04:34:12;;;;;;;36.87;19.10;;;0.60;1.00;;;;;;5114976;28;20177;-50
2023/12/08 04:36:38;;;;;;;33.00;18.00;;;0.60;1.00;;;;;;5115287;28;20184;-50
2023/12/08 04:39:04;;;;;;;33.63;16.83;;;0.60;99.90;;;;;;5115130;28;20614;-50
2023/12/08 04:41:29;;;;;;;30.87;16.00;;;0.60;1.00;;;;;;5115048;28;20177;-50
2023/12/08 04:43:55;;;;;;;32.07;16.93;;;0.60;1.00;;;;;;5114573;28;20237;-50
2023/12/08 04:46:20;;;;;;;30.50;16.00;;;0.60;1.00;;;;;;5114897;28;20188;-50
2023/12/08 04:48:46;;;;;;;37.00;17.47;;;0.60;1.00;;;;;;5114795;28;20263;-50
2023/12/08 04:51:11;;;;;;;30.67;16.03;;;0.70;1.00;;;;;;5114631;28;20267;-50
2023/12/08 04:53:37;;;;;;;35.87;15.97;;;0.70;99.90;;;;;;5114340;28;20177;-50
2023/12/08 04:56:04;;;;;;;33.53;16.70;;;0.70;99.90;;;;;;5114560;28;20177;-50
2023/12/08 04:58:29;;;;;;;33.50;17.20;;;0.70;40.20;;;;;;5114724;28;20172;-50
2023/12/08 05:00:55;;;;;;;33.10;15.90;;;0.80;1.00;;;;;;5114156;28;20410;-49
2023/12/08 05:03:23;;;;;;;28.60;15.30;;;0.80;99.90;;;;;;5114712;28;20183;-49
2023/12/08 05:05:48;;;;;;;30.57;14.70;;;0.80;1.00;;;;;;5114370;28;20605;-50
2023/12/08 05:08:14;;;;;;;30.40;15.67;;;0.80;1.00;;;;;;5114124;28;20422;-49
2023/12/08 05:10:39;;;;;;;36.03;17.90;;;0.80;34.30;;;;;;5113883;28;20199;-49
2023/12/08 05:13:05;;;;;;;35.53;15.70;;;0.80;1.00;;;;;;5114420;28;20178;-50
2023/12/08 05:15:30;;;;;;;29.27;14.53;;;0.80;1.00;;;;;;5114891;28;20191;-50
2023/12/08 05:17:56;;;;;;;28.13;14.83;;;0.80;1.00;;;;;;5114550;28;20538;-50
2023/12/08 05:20:22;;;;;;;28.50;15.03;;;0.90;1.00;;;;;;5114192;28;20522;-51
2023/12/08 05:22:47;;;;;;;29.50;15.27;;;0.80;1.00;;;;;;5114081;28;20537;-50
2023/12/08 05:25:13;;;;;;;30.87;14.73;;;0.80;1.00;;;;;;5114262;28;20307;-50
2023/12/08 05:27:38;;;;;;;32.33;15.40;;;0.80;1.00;;;;;;5114028;28;20196;-51
2023/12/08 05:30:04;;;;;;;30.33;15.53;;;0.80;8.40;;;;;;5113856;28;20208;-51
2023/12/08 05:32:30;;;;;;;33.20;16.37;;;0.70;99.90;;;;;;5113701;28;20177;-50
2023/12/08 05:34:56;;;;;;;28.30;15.30;;;0.70;99.90;;;;;;5114130;28;20415;-50
2023/12/08 05:37:21;;;;;;;33.23;16.47;;;0.80;98.20;;;;;;5113796;28;20671;-51
2023/12/08 05:39:47;;;;;;;31.77;16.00;;;0.80;23.30;;;;;;5114624;28;20184;-50
2023/12/08 05:42:12;;;;;;;33.53;16.97;;;0.70;99.90;;;;;;5114178;28;20177;-50
2023/12/08 05:44:38;;;;;;;32.37;15.93;;;0.70;99.90;;;;;;5113693;28;20341;-51
2023/12/08 05:47:04;;;;;;;32.13;16.07;;;0.70;99.90;;;;;;5113694;28;20196;-50
2023/12/08 05:49:29;;;;;;;32.07;16.90;;;0.70;99.90;;;;;;5113516;28;20176;-51
2023/12/08 05:51:55;;;;;;;39.80;18.63;;;0.70;1.00;;;;;;5113897;28;20180;-50
2023/12/08 05:54:20;;;;;;;32.67;16.73;;;0.70;1.00;;;;;;5114172;28;20256;-51
2023/12/08 05:56:48;;;;;;;33.20;17.13;;;0.80;1.00;;;;;;5113912;28;20656;-50
2023/12/08 05:59:13;;;;;;;31.80;17.03;;;0.80;1.00;;;;;;5114098;28;20231;-50
2023/12/08 06:01:39;;;;;;;32.63;16.43;;;0.70;1.00;;;;;;5113807;28;20907;-51
2023/12/08 06:04:04;;;;;;;35.30;17.43;;;0.80;1.00;;;;;;5113966;28;20511;-51
2023/12/08 06:06:31;;;;;;;35.30;17.47;;;0.80;1.00;;;;;;5113403;28;20251;-51
2023/12/08 06:08:57;;;;;;;37.30;18.20;;;0.70;1.00;;;;;;5113807;28;20195;-51
2023/12/08 06:11:23;;;;;;;37.70;17.47;;;0.70;1.00;;;;;;5113864;28;20426;-51
2023/12/08 06:13:48;;;;;;;36.70;17.37;;;0.70;1.00;;;;;;5113564;28;20169;-51
2023/12/08 06:16:14;;;;;;;38.03;18.43;;;0.70;99.90;;;;;;5114065;28;20181;-51
2023/12/08 06:18:40;;;;;;;34.90;19.57;;;0.70;99.90;;;;;;5113578;28;20180;-51
2023/12/08 06:21:06;;;;;;;43.00;19.43;;;0.70;99.90;;;;;;5113744;28;20215;-50
2023/12/08 06:23:32;;;;;;;41.33;19.30;;;0.70;99.90;;;;;;5115772;28;20411;-50
2023/12/08 06:25:57;;;;;;;42.90;20.37;;;0.70;1.00;;;;;;5117466;28;20515;-50
2023/12/08 06:28:23;;;;;;;45.43;20.80;;;0.70;1.00;;;;;;5117390;28;20177;-50
2023/12/08 06:30:48;;;;;;;43.70;20.80;;;0.80;1.00;;;;;;5117701;28;20184;-50
2023/12/08 06:33:14;;;;;;;40.30;19.80;;;0.70;1.00;;;;;;5117451;28;20294;-50
2023/12/08 06:35:39;;;;;;;42.47;19.80;;;0.70;99.90;;;;;;5117724;28;20181;-50
2023/12/08 06:38:05;;;;;;;42.23;21.03;;;0.70;99.90;;;;;;5117395;28;20184;-50
2023/12/08 06:40:30;;;;;;;50.07;21.50;;;0.70;1.00;;;;;;5117501;28;20645;-50
2023/12/08 06:42:56;;;;;;;44.63;20.10;;;0.70;1.00;;;;;;5117522;28;20180;-50
2023/12/08 06:45:22;;;;;;;45.30;21.63;;;0.70;1.00;;;;;;5117224;28;20209;-50
2023/12/08 06:47:47;;;;;;;45.33;21.13;;;0.70;99.90;;;;;;5117164;28;20176;-50
2023/12/08 06:50:13;;;;;;;48.90;22.07;;;0.70;99.90;;;;;;5117328;28;20199;-50
2023/12/08 06:52:39;;;;;;;55.80;23.87;;;0.80;99.90;;;;;;5117431;28;20204;-50
2023/12/08 06:55:05;;;;;;;48.00;22.00;;;0.80;99.90;;;;;;5117080;28;20423;-50
2023/12/08 06:57:30;;;;;;;47.40;22.13;;;0.80;1.00;;;;;;5116922;28;20181;-50
2023/12/08 06:59:56;;;;;;;56.17;22.43;;;0.70;99.90;;;;;;5116826;28;20165;-50
2023/12/08 07:02:22;;;;;;;50.00;22.87;;;0.80;1.00;;;;;;5117135;28;20188;-50
2023/12/08 07:04:47;;;;;;;46.50;22.63;;;0.80;1.00;;;;;;5116730;28;20204;-50
2023/12/08 07:07:15;;;;;;;52.70;23.17;;;0.80;1.00;;;;;;5115924;28;20758;-50
2023/12/08 07:09:41;;;;;;;47.13;23.73;;;0.80;42.40;;;;;;5116455;28;20180;-50
2023/12/08 07:12:07;;;;;;;51.93;24.07;;;0.80;99.90;;;;;;5116424;28;20411;-51
2023/12/08 07:14:33;;;;;;;49.73;24.43;;;0.80;99.90;;;;;;5116754;28;20426;-51
2023/12/08 07:16:59;;;;;;;51.40;23.87;;;0.80;99.90;;;;;;5116468;28;20208;-51
2023/12/08 07:19:24;;;;;;;51.50;24.30;;;0.80;99.90;;;;;;5116838;28;20418;-50
2023/12/08 07:21:50;;;;;;;50.87;22.70;;;0.90;99.90;;;;;;5116595;28;20419;-50
2023/12/08 07:24:16;;;;;;;52.30;24.13;;;0.90;99.90;;;;;;5116275;28;20244;-50
2023/12/08 07:26:42;;;;;;;49.37;22.57;;;0.90;99.90;;;;;;5116570;28;20211;-50
2023/12/08 07:29:07;;;;;;;52.07;25.03;;;0.90;99.90;;;;;;5116266;28;20920;-50
2023/12/08 07:31:33;;;;;;;50.30;22.87;;;0.90;99.90;;;;;;5116328;28;20184;-50
2023/12/08 07:33:58;;;;;;;50.77;23.20;;;0.90;99.90;;;;;;5116082;28;20185;-51
2023/12/08 07:36:24;;;;;;;52.10;24.97;;;0.90;99.90;;;;;;5116154;28;20177;-50
2023/12/08 07:38:49;;;;;;;51.93;25.17;;;0.90;99.90;;;;;;5116467;28;20172;-50
2023/12/08 07:41:15;;;;;;;55.67;25.80;;;1.00;99.90;;;;;;5116233;28;20188;-50
2023/12/08 07:43:41;;;;;;;50.70;23.70;;;0.90;99.90;;;;;;5116211;28;20168;-50
2023/12/08 07:46:07;;;;;;;53.40;23.90;;;1.00;99.90;;;;;;5115678;28;20216;-50
2023/12/08 07:48:33;;;;;;;49.17;24.93;;;1.10;99.90;;;;;;5116327;28;20195;-50
2023/12/08 07:50:58;;;;;;;50.50;23.73;;;1.10;94.40;;;;;;5116141;28;20412;-50
2023/12/08 07:53:24;;;;;;;50.57;24.23;;;1.10;99.90;;;;;;5115626;28;20219;-49
2023/12/08 07:55:49;;;;;;;48.73;23.57;;;1.20;2.20;;;;;;5115830;28;20180;-49
2023/12/08 07:58:15;;;;;;;51.50;24.93;;;1.20;1.00;;;;;;5116145;28;20185;-49
2023/12/08 08:00:40;;;;;;;55.47;24.30;;;1.20;1.00;;;;;;5115526;28;20173;-51
2023/12/08 08:03:06;;;;;;;44.40;23.43;;;1.20;1.00;;;;;;5115902;28;20180;-51
2023/12/08 08:05:32;;;;;;;47.80;23.40;;;1.20;1.00;;;;;;5115500;28;20238;-51
2023/12/08 08:07:57;;;;;;;54.77;25.10;;;1.10;1.00;;;;;;5116188;28;20241;-50
2023/12/08 08:10:23;;;;;;;50.57;22.47;;;1.20;1.00;;;;;;5115401;28;20210;-51
2023/12/08 08:12:48;;;;;;;48.17;22.50;;;1.30;1.00;;;;;;5115313;28;20173;-50
2023/12/08 08:15:14;;;;;;;49.10;23.73;;;1.30;99.90;;;;;;5115718;28;20187;-50
2023/12/08 08:17:40;;;;;;;47.47;23.53;;;1.30;99.90;;;;;;5115204;28;20272;-50
2023/12/08 08:20:06;;;;;;;44.30;22.20;;;1.40;1.00;;;;;;5115203;28;20180;-51
2023/12/08 08:22:32;;;;;;;56.03;24.13;;;1.30;1.00;;;;;;5115285;28;20597;-50
2023/12/08 08:25:01;;;;;;;50.27;22.77;;;1.30;1.00;;;;;;5115139;28;20989;-50
2023/12/08 08:27:28;;;;;;;51.80;23.30;;;1.30;99.90;;;;;;5115542;28;20422;-51
2023/12/08 08:29:53;;;;;;;45.73;22.50;;;1.40;99.90;;;;;;5114852;28;20470;-51
2023/12/08 08:32:19;;;;;;;48.83;22.90;;;1.40;13.80;;;;;;5115039;28;20991;-50
2023/12/08 08:34:45;;;;;;;50.13;24.23;;;1.50;1.00;;;;;;5115010;28;20181;-50
2023/12/08 08:37:10;;;;;;;49.47;23.40;;;1.50;1.00;;;;;;5115063;28;20195;-51
2023/12/08 08:39:36;;;;;;;49.87;23.37;;;1.50;99.90;;;;;;5114859;28;20265;-51
2023/12/08 08:42:01;;;;;;;51.70;23.97;;;1.40;1.00;;;;;;5114775;28;20276;-51
2023/12/08 08:44:27;;;;;;;46.03;23.73;;;1.50;99.90;;;;;;5114594;28;20208;-50
2023/12/08 08:46:53;;;;;;;47.40;23.43;;;1.40;1.00;;;;;;5113998;28;20172;-51
2023/12/08 08:49:19;;;;;;;46.73;23.97;;;1.50;1.00;;;;;;5114607;28;20440;-51
2023/12/08 08:51:44;;;;;;;46.83;22.63;;;1.50;1.00;;;;;;5114652;28;20179;-50
2023/12/08 08:54:10;;;;;;;47.87;23.07;;;1.50;1.00;;;;;;5114553;28;20185;-50
2023/12/08 08:56:36;;;;;;;54.00;26.07;;;1.50;1.00;;;;;;5114735;28;20181;-51
2023/12/08 08:59:03;;;;;;;48.60;23.63;;;1.50;1.00;;;;;;5114814;28;20183;-51
2023/12/08 09:01:28;;;;;;;52.17;25.63;;;1.60;1.00;;;;;;5114579;28;20208;-51
2023/12/08 09:03:54;;;;;;;51.30;24.83;;;1.60;1.00;;;;;;5114210;28;20450;-51
2023/12/08 09:06:19;;;;;;;49.37;23.83;;;1.60;1.00;;;;;;5113912;28;20634;-51
2023/12/08 09:08:45;;;;;;;49.40;24.37;;;1.60;1.00;;;;;;5114497;28;20173;-51
2023/12/08 09:11:11;;;;;;;54.53;24.70;;;1.60;1.00;;;;;;5114411;28;20176;-51
2023/12/08 09:13:37;;;;;;;48.47;24.80;;;1.70;1.00;;;;;;5114365;28;20580;-50
2023/12/08 09:16:02;;;;;;;47.20;25.07;;;1.70;99.90;;;;;;5114025;28;20422;-51
2023/12/08 09:18:28;;;;;;;49.60;24.10;;;1.70;99.90;;;;;;5114020;28;20727;-50
2023/12/08 09:20:54;;;;;;;45.37;23.30;;;1.70;99.90;;;;;;5114216;28;20176;-50
2023/12/08 09:23:19;;;;;;;47.17;24.73;;;1.70;1.00;;;;;;5113717;28;20626;-50
2023/12/08 09:25:45;;;;;;;48.80;24.40;;;1.70;99.90;;;;;;5113978;28;20668;-52
2023/12/08 09:28:11;;;;;;;50.80;25.17;;;1.70;99.90;;;;;;5113916;28;20636;-51
2023/12/08 09:30:36;;;;;;;48.20;24.33;;;1.70;1.00;;;;;;5113721;28;20246;-50
2023/12/08 09:33:02;;;;;;;53.20;26.20;;;1.70;99.90;;;;;;5113682;28;20288;-50
2023/12/08 09:35:28;;;;;;;52.47;24.90;;;1.70;99.90;;;;;;5113813;28;20189;-51
2023/12/08 09:37:54;;;;;;;46.80;23.87;;;1.70;1.00;;;;;;5113517;28;20467;-50
2023/12/08 09:40:23;;;;;;;53.77;25.00;;;1.80;99.90;;;;;;5113940;28;20183;-51
2023/12/08 09:43:03;;;;;;;52.80;24.60;;;1.80;1.00;;;;;;5113670;28;20602;-50
2023/12/08 09:45:29;;;;;;;54.00;25.13;;;1.90;59.50;;;;;;5113476;28;20446;-51
2023/12/08 09:47:55;;;;;;;48.23;25.37;;;1.80;1.00;;;;;;5113893;28;20923;-50
2023/12/08 09:50:22;;;;;;;53.23;26.13;;;1.80;4.00;;;;;;5113800;28;20260;-50
2023/12/08 09:52:48;;;;;;;46.07;23.83;;;1.80;99.90;;;;;;5113633;28;20415;-51
2023/12/08 09:55:16;;;;;;;46.77;24.00;;;1.90;1.00;;;;;;5113619;28;20422;-50
2023/12/08 09:57:44;;;;;;;49.70;24.00;;;1.80;1.00;;;;;;5116455;28;20510;-51
2023/12/08 10:00:13;;;;;;;49.17;24.83;;;1.80;1.00;;;;;;5118076;28;20406;-51
2023/12/08 10:02:39;;;;;;;55.07;26.40;;;1.80;1.00;;;;;;5117843;28;20413;-51
2023/12/08 10:05:06;;;;;;;48.43;25.70;;;1.80;1.00;;;;;;5117666;28;20824;-51
2023/12/08 10:07:32;;;;;;;48.97;24.20;;;1.90;1.00;;;;;;5117895;28;20429;-50
2023/12/08 10:10:02;;;;;;;43.57;22.80;;;1.80;1.00;;;;;;5117838;28;20906;-51
2023/12/08 10:12:28;;;;;;;46.00;23.73;;;1.90;99.90;;;;;;5117734;28;20407;-51
2023/12/08 10:15:00;;;;;;;44.83;23.17;;;1.90;99.90;;;;;;5117662;28;20525;-51
2023/12/08 10:17:26;;;;;;;42.77;23.20;;;1.90;99.90;;;;;;5117729;28;20763;-52
2023/12/08 10:20:09;;;;;;;46.90;22.60;;;1.90;99.90;;;;;;5117940;28;20414;-50
2023/12/08 10:22:54;;;;;;;48.60;24.37;;;1.90;99.90;;;;;;5117455;28;20184;-51
2023/12/08 10:25:21;;;;;;;47.27;24.93;;;2.00;1.00;;;;;;5117238;28;20466;-51
2023/12/08 10:27:51;;;;;;;46.90;24.43;;;2.00;99.90;;;;;;5117361;28;21006;-51
2023/12/08 10:30:18;;;;;;;44.10;23.10;;;2.00;86.80;;;;;;5117364;28;20421;-51
2023/12/08 10:32:44;;;;;;;48.33;23.53;;;1.90;99.90;;;;;;5117403;28;20823;-51
2023/12/08 10:35:14;;;;;;;43.77;22.60;;;2.00;30.70;;;;;;5117717;28;20406;-51
2023/12/08 10:37:40;;;;;;;47.50;23.47;;;2.00;1.00;;;;;;5117453;28;20825;-50
2023/12/08 10:40:08;;;;;;;50.13;23.70;;;2.00;99.90;;;;;;5117410;28;20430;-50
2023/12/08 10:42:33;;;;;;;45.47;23.87;;;2.00;1.00;;;;;;5117217;28;20410;-50
2023/12/08 10:45:00;;;;;;;46.13;23.43;;;2.00;1.00;;;;;;5117342;28;20540;-50
2023/12/08 10:47:26;;;;;;;45.30;23.40;;;2.00;1.00;;;;;;5116937;28;20598;-50
2023/12/08 10:49:54;;;;;;;42.73;23.50;;;2.00;1.00;;;;;;5116723;28;20403;-50
2023/12/08 10:52:22;;;;;;;48.27;23.67;;;2.00;1.00;;;;;;5116831;28;20426;-50
2023/12/08 10:54:49;;;;;;;44.03;23.30;;;2.00;1.00;;;;;;5116900;28;20500;-51
2023/12/08 10:57:15;;;;;;;51.60;24.53;;;2.00;99.90;;;;;;5117281;28;20416;-51
2023/12/08 10:59:43;;;;;;;48.23;22.93;;;2.00;99.90;;;;;;5116686;28;20555;-50
2023/12/08 11:02:20;;;;;;;48.63;23.53;;;1.90;1.00;;;;;;5116470;28;20769;-50
2023/12/08 11:04:51;;;;;;;44.83;22.80;;;1.90;1.00;;;;;;5116160;28;21033;-50
2023/12/08 11:07:22;;;;;;;49.17;23.27;;;1.90;1.00;;;;;;5116567;28;20422;-50
2023/12/08 11:09:51;;;;;;;42.70;22.30;;;1.80;28.20;;;;;;5116384;28;20406;-50
2023/12/08 11:12:23;;;;;;;46.80;24.00;;;1.80;99.90;;;;;;5116657;28;20501;-50
2023/12/08 11:14:57;;;;;;;47.20;23.60;;;1.80;99.90;;;;;;5116744;28;20406;-50
2023/12/08 11:17:47;;;;;;;48.03;23.33;;;1.80;99.90;;;;;;5116809;28;20727;-50
2023/12/08 11:20:14;;;;;;;45.87;23.80;;;1.80;1.00;;;;;;5116599;28;20538;-50
2023/12/08 11:22:40;;;;;;;44.33;22.90;;;1.70;1.00;;;;;;5116416;28;20812;-49
2023/12/08 11:25:12;;;;;;;49.27;24.30;;;1.70;99.90;;;;;;5115988;28;20555;-49
2023/12/08 11:28:05;;;;;;;43.03;22.17;;;1.80;99.90;;;;;;5116249;28;20633;-49
2023/12/08 11:30:51;;;;;;;49.10;23.30;;;1.80;72.30;;;;;;5100979;28;20406;-49
2023/12/08 11:33:47;;;;;;;44.07;22.97;;;1.80;99.90;;;;;;5116413;28;20414;-49
2023/12/08 11:36:18;;;;;;;43.93;23.37;;;1.80;1.00;;;;;;5116372;28;20840;-49
2023/12/08 11:38:43;;;;;;;46.93;22.97;;;1.80;1.00;;;;;;5116344;28;20459;-50
2023/12/08 11:41:13;;;;;;;50.30;22.73;;;1.80;1.00;;;;;;5115783;28;20415;-49
2023/12/08 11:43:43;;;;;;;48.47;23.33;;;1.70;1.00;;;;;;5116105;28;20180;-50
2023/12/08 11:46:09;;;;;;;49.00;23.83;;;1.70;99.90;;;;;;5115918;28;20490;-50
2023/12/08 11:48:35;;;;;;;46.07;23.63;;;1.60;99.90;;;;;;5116033;28;20814;-50
2023/12/08 11:51:03;;;;;;;50.53;24.90;;;1.60;1.00;;;;;;5115841;28;20439;-49
2023/12/08 11:53:46;;;;;;;49.13;23.80;;;1.50;1.00;;;;;;5115700;28;20415;-49
2023/12/08 11:56:42;;;;;;;46.90;23.93;;;1.50;99.90;;;;;;5115923;28;20422;-50
2023/12/08 11:59:08;;;;;;;54.00;24.43;;;1.40;99.90;;;;;;5115488;28;20787;-49
2023/12/08 12:01:37;;;;;;;51.60;25.07;;;1.50;1.00;;;;;;5115619;28;20415;-49
2023/12/08 12:04:03;;;;;;;51.83;24.93;;;1.50;1.00;;;;;;5115312;28;20495;-49
2023/12/08 12:06:30;;;;;;;46.80;23.33;;;1.50;1.00;;;;;;5115450;28;20955;-49
2023/12/08 12:08:58;;;;;;;54.00;25.57;;;1.40;1.00;;;;;;5115358;28;20423;-50
2023/12/08 12:11:28;;;;;;;51.00;25.20;;;1.40;1.00;;;;;;5099016;28;21199;-50
2023/12/08 12:13:58;;;;;;;51.03;25.83;;;1.40;1.00;;;;;;5095135;28;20423;-50
2023/12/08 12:16:23;;;;;;;56.00;26.03;;;1.40;47.50;;;;;;5094844;28;20971;-50
2023/12/08 12:18:49;;;;;;;59.47;24.37;;;1.50;81.00;;;;;;5077122;28;20419;-50
2023/12/08 12:21:15;;;;;;;52.57;24.80;;;1.40;99.90;;;;;;5093691;28;20239;-50
2023/12/08 12:23:40;;;;;;;50.13;23.70;;;1.50;99.90;;;;;;5094756;28;20177;-50
2023/12/08 12:26:13;;;;;;;43.97;23.87;;;1.50;99.90;;;;;;5094815;28;20521;-51
2023/12/08 12:28:39;;;;;;;54.77;25.70;;;1.50;99.90;;;;;;5095193;28;20185;-50
2023/12/08 12:31:04;;;;;;;49.90;25.33;;;1.40;95.80;;;;;;5094628;28;20412;-50
2023/12/08 12:33:30;;;;;;;55.17;23.43;;;1.40;99.90;;;;;;5094667;28;20203;-50
2023/12/08 12:35:55;;;;;;;50.80;25.27;;;1.40;99.90;;;;;;5094338;28;20235;-50
2023/12/08 12:38:21;;;;;;;58.47;25.73;;;1.40;99.80;;;;;;5094705;28;20181;-50